Nearby METAR Reports

 

EGWC - Cosford Raf, United Kingdom
Distance from station: SSW 22km
Updated: 04/05/2020 13:50
NOT Current
Mostly cloudy
Mostly cloudy
 Wind from E
Wind: E 15 mph , 24 km/h
Temperature: 15°C
Dew Point: 8°C
Humidity: 63%
Barometer: 1021 hPa
Clouds: Mostly cloudy
Visibility: 6 miles , 10 km
Cloud details: Mostly cloudy 853 m
2020/05/04 12:50 EGWC 041250Z 09013KT 9999 BKN028 15/08 Q1021 RMK BLU
EGOS - Shawbury Raf, United Kingdom
Distance from station: W 37km
Updated: 27/05/2020 10:22
Mostly cloudy
Mostly cloudy
 Wind from N
Wind: N 8 mph , 13 km/h
Temperature: 16°C
Dew Point: 8°C
Humidity: 59%
Barometer: 1037 hPa
Clouds: Mostly cloudy
Visibility: 6 miles , 10 km
Cloud details: Few Clouds 975 m
Mostly cloudy 7620 m
2020/05/27 09:22 EGOS 270922Z 35007KT 9999 FEW032 BKN250 16/08 Q1037 NOSIG RMK BLU BLU
 
EGBB - Birmingham Airpo, United Kingdom
Distance from station: SE 44km
Updated: 27/05/2020 10:20
Few Clouds
Few Clouds
 Wind from varies
Wind: varies 6 mph , 9 km/h
Temperature: 18°C
Dew Point: 5°C
Humidity: 43%
Barometer: 1037 hPa
Clouds: Few Clouds
Visibility: 6 miles , 10 km
Cloud details: Few Clouds 975 m
2020/05/27 09:20 EGBB 270920Z VRB05KT 9999 FEW032 18/05 Q1037
EGNX - East Midlands, United Kingdom
Distance from station: E 54km
Updated: 27/05/2020 10:20
Clear
Clear
 Wind from NW
Wind: NW 5 mph , 7 km/h
Temperature: 18°C
Dew Point: 6°C
Humidity: 46%
Barometer: 1037 hPa
Summary: Clear
Visibility: greater than 7 miles , 10 km
2020/05/27 09:20 EGNX 270920Z 32004KT 260V020 CAVOK 18/06 Q1037
 
EGCC - Manchester Intl, United Kingdom
Distance from station: N 63km
Updated: 27/05/2020 10:20
Clear
Clear
 Wind from WNW
Wind: WNW 5 mph , 7 km/h
Temperature: 17°C
Dew Point: 9°C
Humidity: 59%
Barometer: 1037 hPa
Clouds: Clear
Visibility: 6 miles , 10 km
2020/05/27 09:20 EGCC 270920Z AUTO 29004KT 240V350 9999 NCD 17/09 Q1037 NOSIG
EGBE - Coventry Airport, United Kingdom
Distance from station: SE 65km
Updated: 18/07/2017 14:50
NOT Current
Clear
Clear
 Wind from E
Wind: E 16 mph , 26 km/h
Temperature: 27°C
Heat Index: 27°C
Dew Point: 14°C
Humidity: 45%
Barometer: 1015 hPa
Summary: Clear
Visibility: greater than 7 miles , 10 km
2017/07/18 13:50 EGBE 181350Z 10014KT 060V120 CAVOK 27/14 Q1015
 
EGNR - Hawarden (aut), United Kingdom
Distance from station: NW 70km
Updated: 27/05/2020 10:20
Few Clouds
Few Clouds
 Wind from NNW
Wind: NNW 5 mph , 7 km/h
Temperature: 17°C
Dew Point: 9°C
Humidity: 59%
Barometer: 1038 hPa
Clouds: Few Clouds
Visibility: 6 miles , 10 km
Cloud details: Few Clouds 1219 m
2020/05/27 09:20 EGNR 270920Z 33004KT 260V030 9999 FEW040 17/09 Q1038
EGGP - Liverpool Airpor, United Kingdom
Distance from station: NW 76km
Updated: 27/05/2020 10:20
Few Clouds
Few Clouds
 Wind from varies
Wind: varies 5 mph , 7 km/h
Temperature: 17°C
Dew Point: 11°C
Humidity: 68%
Barometer: 1037 hPa
Clouds: Few Clouds
Visibility: 6 miles , 10 km
Cloud details: Few Clouds 823 m
2020/05/27 09:20 EGGP 270920Z VRB04KT 9999 FEW027 17/11 Q1037